Flood From: 21-02-2018 18:00 Until: 22-02-2018 16:00 warning for: Flood Level: Yellow info button

Although rather usual in this region, locally or potentially dangerous phenomena are expected. (such as local winds, summer thunderstorms, rising streams or high waves) Be aware and pay attention to the latest weather updates, especially if you carry out activities exposed to weather or close to a stream or shoreline. 


Meteo18 Weather Cam more information Meteo18 Weather Cam


Thunder radar more information blitzortung!


Rain radar more information rain snow radar


Visit our other weather sites:

Template documentation
and downloads

And another site



Weather Underground History page Text

Daily Summary for February 17, 2017 Units:  Both    English   Metric
« Previous Day
Next Day »
Daily Weekly Monthly Yearly Custom
  High: Low: Average:
Temperature: TemperatureC °F /  -17.8 °C 4.8 °F /  -15.1 °C 6.7 °F /  -14.1 °C
Dew Point: DewpointC °F /  -17.8 °C 3.5 °F /  -15.8 °C 5.7 °F /  -14.6 °C
Humidity: Humidity % 81 % 93 %
Wind Speed: WindSpeedKMH mph /  0 km/h - 1.6 mph /  2.6 km/h
Wind Gust: WindSpeedGustKMH mph /  0 km/h - -
Wind:- - SSE
Pressure: PressurehPa in /  0 hPa 1028.0 in /  34808.1 hPa -
Precipitation: 0.5 in /  12.7 mm    
Historical Graphs
 
 
Tabular Data for February 17, 2017
Time Temperature Dew Point Pressure Wind Wind Speed Wind Gust Humidity Rainfall Rate (Hourly)
TemperatureC °F /  -17.8 °C DewpointC °F /  -17.8 °C PressurehPa in /  0 hPa Calm     Humidity % HourlyPrecipMM in /  0 mm
00:02 8.7 °F /  -12.9 °C 8.3 °F /  -13.2 °C 1030.4 in /  34889.3 hPa Calm     97 % 0.0 in /  0 mm
00:12 8.6 °F /  -13 °C 8.2 °F /  -13.2 °C 1030.4 in /  34889.3 hPa Calm     97 % 0.0 in /  0 mm
00:17 8.3 °F /  -13.2 °C 7.7 °F /  -13.5 °C 1030.7 in /  34899.5 hPa Calm     96 % 0.0 in /  0 mm
00:22 8.1 °F /  -13.3 °C 7.5 °F /  -13.6 °C 1030.7 in /  34899.5 hPa Calm     96 % 0.0 in /  0 mm
00:32 7.7 °F /  -13.5 °C 7.1 °F /  -13.8 °C 1030.7 in /  34899.5 hPa Calm     96 % 0.0 in /  0 mm
00:42 7.7 °F /  -13.5 °C 7.3 °F /  -13.7 °C 1030.7 in /  34899.5 hPa Calm     97 % 0.0 in /  0 mm
00:52 7.8 °F /  -13.4 °C 7.4 °F /  -13.7 °C 1030.4 in /  34889.3 hPa Calm     97 % 0.0 in /  0 mm
00:57 7.9 °F /  -13.4 °C 7.5 °F /  -13.6 °C 1030.4 in /  34889.3 hPa Calm     97 % 0.0 in /  0 mm
01:02 7.8 °F /  -13.4 °C 7.4 °F /  -13.7 °C 1030.4 in /  34889.3 hPa Calm     97 % 0.0 in /  0 mm
01:12 7.8 °F /  -13.4 °C 7.4 °F /  -13.7 °C 1030.7 in /  34899.5 hPa Calm     97 % 0.0 in /  0 mm
01:17 7.8 °F /  -13.4 °C 7.4 °F /  -13.7 °C 1030.4 in /  34889.3 hPa Calm     97 % 0.0 in /  0 mm
01:22 7.6 °F /  -13.6 °C 7.2 °F /  -13.8 °C 1030.4 in /  34889.3 hPa Calm     97 % 0.0 in /  0 mm
01:27 7.6 °F /  -13.6 °C 7.2 °F /  -13.8 °C 1030.4 in /  34889.3 hPa Calm     97 % 0.0 in /  0 mm
01:32 7.6 °F /  -13.6 °C 7.2 °F /  -13.8 °C 1030.4 in /  34889.3 hPa Calm     97 % 0.0 in /  0 mm
01:37 7.6 °F /  -13.6 °C 7.2 °F /  -13.8 °C 1030.4 in /  34889.3 hPa Calm   1.6 mph /  2.6 km/h 97 % 0.0 in /  0 mm
01:42 7.5 °F /  -13.6 °C 7.1 °F /  -13.8 °C 1030.4 in /  34889.3 hPa Calm   1.6 mph /  2.6 km/h 97 % 0.0 in /  0 mm
01:47 7.3 °F /  -13.7 °C 6.9 °F /  -13.9 °C 1030.4 in /  34889.3 hPa Calm   1.6 mph /  2.6 km/h 97 % 0.0 in /  0 mm
01:57 6.9 °F /  -13.9 °C 6.3 °F /  -14.3 °C 1030.4 in /  34889.3 hPa Calm   3.2 mph /  5.1 km/h 96 % 0.0 in /  0 mm
02:02 6.4 °F /  -14.2 °C 5.8 °F /  -14.6 °C 1030.4 in /  34889.3 hPa Calm   3.2 mph /  5.1 km/h 96 % 0.0 in /  0 mm
02:07 6.7 °F /  -14.1 °C 6.3 °F /  -14.3 °C 1030.0 in /  34875.8 hPa Calm     97 % 0.0 in /  0 mm
02:17 6.7 °F /  -14.1 °C 6.3 °F /  -14.3 °C 1030.0 in /  34875.8 hPa Calm     97 % 0.0 in /  0 mm
02:22 6.7 °F /  -14.1 °C 6.3 °F /  -14.3 °C 1030.4 in /  34889.3 hPa Calm     97 % 0.0 in /  0 mm
02:32 6.4 °F /  -14.2 °C 6.0 °F /  -14.4 °C 1030.4 in /  34889.3 hPa Calm     97 % 0.3 in /  7.62 mm
02:42 6.6 °F /  -14.1 °C 6.2 °F /  -14.3 °C 1030.4 in /  34889.3 hPa Calm     97 % 0.3 in /  7.62 mm
02:47 6.6 °F /  -14.1 °C 6.3 °F /  -14.3 °C 1030.0 in /  34875.8 hPa Calm     98 % 0.3 in /  7.62 mm
02:52 6.4 °F /  -14.2 °C 6.0 °F /  -14.4 °C 1030.0 in /  34875.8 hPa Calm     97 % 0.3 in /  7.62 mm
03:02 6.5 °F /  -14.2 °C 6.1 °F /  -14.4 °C 1030.0 in /  34875.8 hPa Calm     97 % 0.3 in /  7.62 mm
03:07 6.8 °F /  -14 °C 6.5 °F /  -14.2 °C 1030.0 in /  34875.8 hPa Calm     98 % 0.3 in /  7.62 mm
03:12 6.7 °F /  -14.1 °C 6.4 °F /  -14.2 °C 1030.0 in /  34875.8 hPa Calm     98 % 0.3 in /  7.62 mm
03:17 6.9 °F /  -13.9 °C 6.6 °F /  -14.1 °C 1030.0 in /  34875.8 hPa Calm     98 % 0.3 in /  7.62 mm
03:22 7.0 °F /  -13.9 °C 6.7 °F /  -14.1 °C 1030.0 in /  34875.8 hPa Calm     98 % 0.3 in /  7.62 mm
03:27 6.6 °F /  -14.1 °C 6.2 °F /  -14.3 °C 1030.0 in /  34875.8 hPa Calm     97 % 0.0 in /  0 mm
03:32 6.4 °F /  -14.2 °C 6.0 °F /  -14.4 °C 1030.0 in /  34875.8 hPa Calm     97 % 0.0 in /  0 mm
03:37 6.5 °F /  -14.2 °C 6.1 °F /  -14.4 °C 1030.0 in /  34875.8 hPa Calm     97 % 0.0 in /  0 mm
03:42 6.7 °F /  -14.1 °C 6.3 °F /  -14.3 °C 1030.0 in /  34875.8 hPa Calm   1.6 mph /  2.6 km/h 97 % 0.0 in /  0 mm
03:47 6.7 °F /  -14.1 °C 6.3 °F /  -14.3 °C 1030.0 in /  34875.8 hPa North 1.6 mph /  2.6 km/h 1.6 mph /  2.6 km/h 97 % 0.0 in /  0 mm
03:52 6.8 °F /  -14 °C 6.4 °F /  -14.2 °C 1029.7 in /  34865.6 hPa NNE 1.6 mph /  2.6 km/h 1.6 mph /  2.6 km/h 97 % 0.0 in /  0 mm
03:57 6.6 °F /  -14.1 °C 6.2 °F /  -14.3 °C 1029.7 in /  34865.6 hPa North 1.6 mph /  2.6 km/h 3.2 mph /  5.1 km/h 97 % 0.0 in /  0 mm
04:02 6.4 °F /  -14.2 °C 6.0 °F /  -14.4 °C 1029.7 in /  34865.6 hPa NNW 1.6 mph /  2.6 km/h 3.2 mph /  5.1 km/h 97 % 0.0 in /  0 mm
04:12 6.4 °F /  -14.2 °C 6.0 °F /  -14.4 °C 1029.7 in /  34865.6 hPa North 1.6 mph /  2.6 km/h 3.2 mph /  5.1 km/h 97 % 0.0 in /  0 mm
04:17 6.4 °F /  -14.2 °C 6.0 °F /  -14.4 °C 1029.3 in /  34852.1 hPa Calm   3.2 mph /  5.1 km/h 97 % 0.0 in /  0 mm
04:22 6.6 °F /  -14.1 °C 6.2 °F /  -14.3 °C 1029.3 in /  34852.1 hPa NNW 1.6 mph /  2.6 km/h 3.2 mph /  5.1 km/h 97 % 0.0 in /  0 mm
04:32 6.4 °F /  -14.2 °C 6.0 °F /  -14.4 °C 1029.3 in /  34852.1 hPa Calm   4.8 mph /  7.7 km/h 97 % 0.0 in /  0 mm
04:42 6.0 °F /  -14.4 °C 5.6 °F /  -14.7 °C 1029.3 in /  34852.1 hPa Calm   3.2 mph /  5.1 km/h 97 % 0.0 in /  0 mm
04:47 5.9 °F /  -14.5 °C 5.5 °F /  -14.7 °C 1029.7 in /  34865.6 hPa Calm   3.2 mph /  5.1 km/h 97 % 0.0 in /  0 mm
04:52 5.8 °F /  -14.6 °C 5.4 °F /  -14.8 °C 1029.7 in /  34865.6 hPa Calm   3.2 mph /  5.1 km/h 97 % 0.0 in /  0 mm
04:57 5.7 °F /  -14.6 °C 5.3 °F /  -14.8 °C 1029.7 in /  34865.6 hPa Calm   3.2 mph /  5.1 km/h 97 % 0.0 in /  0 mm
05:02 5.8 °F /  -14.6 °C 5.4 °F /  -14.8 °C 1029.7 in /  34865.6 hPa Calm     97 % 0.0 in /  0 mm
05:07 5.8 °F /  -14.6 °C 5.4 °F /  -14.8 °C 1029.7 in /  34865.6 hPa Calm     97 % 0.0 in /  0 mm
05:17 5.7 °F /  -14.6 °C 5.3 °F /  -14.8 °C 1029.7 in /  34865.6 hPa Calm   1.6 mph /  2.6 km/h 97 % 0.0 in /  0 mm
05:22 5.7 °F /  -14.6 °C 5.3 °F /  -14.8 °C 1029.7 in /  34865.6 hPa Calm   1.6 mph /  2.6 km/h 97 % 0.0 in /  0 mm
05:27 5.8 °F /  -14.6 °C 5.4 °F /  -14.8 °C 1029.7 in /  34865.6 hPa Calm   1.6 mph /  2.6 km/h 97 % 0.0 in /  0 mm
05:32 5.9 °F /  -14.5 °C 5.5 °F /  -14.7 °C 1029.7 in /  34865.6 hPa Calm   1.6 mph /  2.6 km/h 97 % 0.0 in /  0 mm
05:42 5.7 °F /  -14.6 °C 5.3 °F /  -14.8 °C 1029.7 in /  34865.6 hPa Calm   1.6 mph /  2.6 km/h 97 % 0.0 in /  0 mm
05:47 5.8 °F /  -14.6 °C 5.4 °F /  -14.8 °C 1029.3 in /  34852.1 hPa Calm     97 % 0.0 in /  0 mm
05:52 5.7 °F /  -14.6 °C 5.3 °F /  -14.8 °C 1029.3 in /  34852.1 hPa Calm     97 % 0.0 in /  0 mm
05:57 5.7 °F /  -14.6 °C 5.3 °F /  -14.8 °C 1029.3 in /  34852.1 hPa Calm     97 % 0.0 in /  0 mm
06:02 5.6 °F /  -14.7 °C 5.2 °F /  -14.9 °C 1029.7 in /  34865.6 hPa Calm     97 % 0.0 in /  0 mm
06:12 5.9 °F /  -14.5 °C 5.6 °F /  -14.7 °C 1029.3 in /  34852.1 hPa Calm     98 % 0.0 in /  0 mm
06:17 5.9 °F /  -14.5 °C 5.6 °F /  -14.7 °C 1029.3 in /  34852.1 hPa Calm     98 % 0.0 in /  0 mm
06:22 5.8 °F /  -14.6 °C 5.4 °F /  -14.8 °C 1029.3 in /  34852.1 hPa Calm     97 % 0.0 in /  0 mm
06:32 5.7 °F /  -14.6 °C 5.3 °F /  -14.8 °C 1029.3 in /  34852.1 hPa Calm     97 % 0.0 in /  0 mm
06:42 5.7 °F /  -14.6 °C 5.3 °F /  -14.8 °C 1029.3 in /  34852.1 hPa Calm     97 % 0.0 in /  0 mm
06:52 5.8 °F /  -14.6 °C 5.4 °F /  -14.8 °C 1029.3 in /  34852.1 hPa Calm     97 % 0.0 in /  0 mm
07:02 5.7 °F /  -14.6 °C 5.3 °F /  -14.8 °C 1029.3 in /  34852.1 hPa Calm     97 % 0.0 in /  0 mm
07:12 5.6 °F /  -14.7 °C 5.2 °F /  -14.9 °C 1029.3 in /  34852.1 hPa Calm     97 % 0.0 in /  0 mm
07:17 5.6 °F /  -14.7 °C 5.2 °F /  -14.9 °C 1029.3 in /  34852.1 hPa Calm     97 % 0.0 in /  0 mm
07:22 5.6 °F /  -14.7 °C 5.2 °F /  -14.9 °C 1029.3 in /  34852.1 hPa Calm     97 % 0.0 in /  0 mm
07:32 5.4 °F /  -14.8 °C 5.0 °F /  -15 °C 1029.3 in /  34852.1 hPa Calm     97 % 0.0 in /  0 mm
07:37 5.4 °F /  -14.8 °C 5.0 °F /  -15 °C 1029.3 in /  34852.1 hPa Calm     97 % 0.0 in /  0 mm
07:42 5.4 °F /  -14.8 °C 5.0 °F /  -15 °C 1029.3 in /  34852.1 hPa Calm   1.6 mph /  2.6 km/h 97 % 0.0 in /  0 mm
07:52 5.3 °F /  -14.8 °C 4.9 °F /  -15.1 °C 1029.7 in /  34865.6 hPa Calm   3.2 mph /  5.1 km/h 97 % 0.0 in /  0 mm
07:57 5.3 °F /  -14.8 °C 4.9 °F /  -15.1 °C 1029.7 in /  34865.6 hPa Calm     97 % 0.0 in /  0 mm
08:02 5.3 °F /  -14.8 °C 4.9 °F /  -15.1 °C 1029.7 in /  34865.6 hPa Calm     97 % 0.0 in /  0 mm
08:12 5.3 °F /  -14.8 °C 4.9 °F /  -15.1 °C 1029.7 in /  34865.6 hPa Calm     97 % 0.0 in /  0 mm
08:17 5.3 °F /  -14.8 °C 5.0 °F /  -15 °C 1029.7 in /  34865.6 hPa Calm   1.6 mph /  2.6 km/h 98 % 0.0 in /  0 mm
08:22 5.3 °F /  -14.8 °C 4.9 °F /  -15.1 °C 1029.7 in /  34865.6 hPa Calm   1.6 mph /  2.6 km/h 97 % 0.0 in /  0 mm
08:27 5.3 °F /  -14.8 °C 4.9 °F /  -15.1 °C 1029.7 in /  34865.6 hPa Calm   1.6 mph /  2.6 km/h 97 % 0.0 in /  0 mm
08:32 5.3 °F /  -14.8 °C 4.9 °F /  -15.1 °C 1029.7 in /  34865.6 hPa Calm     97 % 0.0 in /  0 mm
08:37 5.3 °F /  -14.8 °C 4.9 °F /  -15.1 °C 1029.7 in /  34865.6 hPa Calm     97 % 0.0 in /  0 mm
08:42 5.2 °F /  -14.9 °C 4.8 °F /  -15.1 °C 1029.7 in /  34865.6 hPa Calm     97 % 0.0 in /  0 mm
08:47 5.2 °F /  -14.9 °C 4.8 °F /  -15.1 °C 1030.0 in /  34875.8 hPa Calm     97 % 0.0 in /  0 mm
08:52 5.3 °F /  -14.8 °C 4.9 °F /  -15.1 °C 1030.0 in /  34875.8 hPa Calm     97 % 0.0 in /  0 mm
08:57 5.3 °F /  -14.8 °C 5.0 °F /  -15 °C 1030.0 in /  34875.8 hPa NNE 1.6 mph /  2.6 km/h   98 % 0.0 in /  0 mm
09:07 5.3 °F /  -14.8 °C 5.0 °F /  -15 °C 1030.0 in /  34875.8 hPa NNE 1.6 mph /  2.6 km/h 4.8 mph /  7.7 km/h 98 % 0.0 in /  0 mm
09:12 5.3 °F /  -14.8 °C 5.0 °F /  -15 °C 1030.0 in /  34875.8 hPa NNE 1.6 mph /  2.6 km/h 4.8 mph /  7.7 km/h 98 % 0.0 in /  0 mm
09:17 5.3 °F /  -14.8 °C 5.0 °F /  -15 °C 1030.0 in /  34875.8 hPa Calm   3.2 mph /  5.1 km/h 98 % 0.0 in /  0 mm
09:22 5.3 °F /  -14.8 °C 4.9 °F /  -15.1 °C 1030.0 in /  34875.8 hPa Calm   3.2 mph /  5.1 km/h 97 % 0.0 in /  0 mm
09:32 5.2 °F /  -14.9 °C 4.8 °F /  -15.1 °C 1030.0 in /  34875.8 hPa Calm   3.2 mph /  5.1 km/h 97 % 0.0 in /  0 mm
09:37 5.2 °F /  -14.9 °C 4.8 °F /  -15.1 °C 1030.0 in /  34875.8 hPa Calm   3.2 mph /  5.1 km/h 97 % 0.0 in /  0 mm
09:42 5.3 °F /  -14.8 °C 4.9 °F /  -15.1 °C 1030.0 in /  34875.8 hPa Calm   3.2 mph /  5.1 km/h 97 % 0.0 in /  0 mm
09:47 5.2 °F /  -14.9 °C 4.8 °F /  -15.1 °C 1030.0 in /  34875.8 hPa NNE 3.2 mph /  5.1 km/h   97 % 0.0 in /  0 mm
09:52 5.3 °F /  -14.8 °C 4.9 °F /  -15.1 °C 1030.0 in /  34875.8 hPa NNE 3.2 mph /  5.1 km/h 3.2 mph /  5.1 km/h 97 % 0.0 in /  0 mm
09:57 5.3 °F /  -14.8 °C 4.9 °F /  -15.1 °C 1030.0 in /  34875.8 hPa NE 3.2 mph /  5.1 km/h 3.2 mph /  5.1 km/h 97 % 0.0 in /  0 mm
10:02 5.3 °F /  -14.8 °C 4.9 °F /  -15.1 °C 1030.4 in /  34889.3 hPa NE 6.4 mph /  10.3 km/h 6.4 mph /  10.3 km/h 97 % 0.0 in /  0 mm
10:12 5.4 °F /  -14.8 °C 5.1 °F /  -14.9 °C 1030.4 in /  34889.3 hPa NE 6.4 mph /  10.3 km/h 9.7 mph /  15.6 km/h 98 % 0.0 in /  0 mm
10:17 5.5 °F /  -14.7 °C 5.2 °F /  -14.9 °C 1030.4 in /  34889.3 hPa NE 3.2 mph /  5.1 km/h 9.7 mph /  15.6 km/h 98 % 0.0 in /  0 mm
10:22 5.5 °F /  -14.7 °C 5.2 °F /  -14.9 °C 1030.4 in /  34889.3 hPa ENE 3.2 mph /  5.1 km/h 9.7 mph /  15.6 km/h 98 % 0.0 in /  0 mm
10:32 5.8 °F /  -14.6 °C 5.5 °F /  -14.7 °C 1030.4 in /  34889.3 hPa ENE 3.2 mph /  5.1 km/h 8.0 mph /  12.9 km/h 98 % 0.0 in /  0 mm
10:42 5.7 °F /  -14.6 °C 5.4 °F /  -14.8 °C 1030.4 in /  34889.3 hPa Calm   6.4 mph /  10.3 km/h 98 % 0.0 in /  0 mm
10:47 5.8 °F /  -14.6 °C 5.5 °F /  -14.7 °C 1030.4 in /  34889.3 hPa ENE 3.2 mph /  5.1 km/h 6.4 mph /  10.3 km/h 98 % 0.0 in /  0 mm
10:52 5.8 °F /  -14.6 °C 5.5 °F /  -14.7 °C 1030.4 in /  34889.3 hPa NE 4.8 mph /  7.7 km/h 6.4 mph /  10.3 km/h 98 % 0.0 in /  0 mm
11:02 5.8 °F /  -14.6 °C 5.5 °F /  -14.7 °C 1030.4 in /  34889.3 hPa NE 1.6 mph /  2.6 km/h 8.0 mph /  12.9 km/h 98 % 0.0 in /  0 mm
11:12 5.7 °F /  -14.6 °C 5.3 °F /  -14.8 °C 1030.4 in /  34889.3 hPa ENE 4.8 mph /  7.7 km/h 8.0 mph /  12.9 km/h 97 % 0.0 in /  0 mm
11:17 5.7 °F /  -14.6 °C 5.3 °F /  -14.8 °C 1030.4 in /  34889.3 hPa NNE 4.8 mph /  7.7 km/h 9.7 mph /  15.6 km/h 97 % 0.0 in /  0 mm
11:22 5.7 °F /  -14.6 °C 5.3 °F /  -14.8 °C 1030.4 in /  34889.3 hPa NE 4.8 mph /  7.7 km/h 9.7 mph /  15.6 km/h 97 % 0.0 in /  0 mm
11:32 5.7 °F /  -14.6 °C 5.4 °F /  -14.8 °C 1030.7 in /  34899.5 hPa Calm   8.0 mph /  12.9 km/h 98 % 0.0 in /  0 mm
11:42 5.7 °F /  -14.6 °C 5.4 °F /  -14.8 °C 1030.7 in /  34899.5 hPa North 3.2 mph /  5.1 km/h 9.7 mph /  15.6 km/h 98 % 0.0 in /  0 mm
11:47 5.7 °F /  -14.6 °C 5.4 °F /  -14.8 °C 1030.7 in /  34899.5 hPa North 4.8 mph /  7.7 km/h 9.7 mph /  15.6 km/h 98 % 0.0 in /  0 mm
11:52 5.8 °F /  -14.6 °C 5.5 °F /  -14.7 °C 1030.7 in /  34899.5 hPa North 6.4 mph /  10.3 km/h 8.0 mph /  12.9 km/h 98 % 0.0 in /  0 mm
11:57 5.8 °F /  -14.6 °C 5.5 °F /  -14.7 °C 1030.7 in /  34899.5 hPa NNE 4.8 mph /  7.7 km/h 8.0 mph /  12.9 km/h 98 % 0.0 in /  0 mm
12:02 5.9 °F /  -14.5 °C 5.6 °F /  -14.7 °C 1030.4 in /  34889.3 hPa NW 1.6 mph /  2.6 km/h 8.0 mph /  12.9 km/h 98 % 0.0 in /  0 mm
12:12 5.9 °F /  -14.5 °C 5.6 °F /  -14.7 °C 1030.4 in /  34889.3 hPa NE 1.6 mph /  2.6 km/h 9.7 mph /  15.6 km/h 98 % 0.0 in /  0 mm
12:17 6.1 °F /  -14.4 °C 5.8 °F /  -14.6 °C 1030.4 in /  34889.3 hPa Calm   9.7 mph /  15.6 km/h 98 % 0.0 in /  0 mm
12:22 6.1 °F /  -14.4 °C 5.8 °F /  -14.6 °C 1030.4 in /  34889.3 hPa North 1.6 mph /  2.6 km/h 9.7 mph /  15.6 km/h 98 % 0.0 in /  0 mm
12:27 6.1 °F /  -14.4 °C 5.8 °F /  -14.6 °C 1030.4 in /  34889.3 hPa NE 3.2 mph /  5.1 km/h 9.7 mph /  15.6 km/h 98 % 0.0 in /  0 mm
12:32 6.1 °F /  -14.4 °C 5.8 °F /  -14.6 °C 1030.4 in /  34889.3 hPa NNE 6.4 mph /  10.3 km/h 9.7 mph /  15.6 km/h 98 % 0.0 in /  0 mm
12:42 6.2 °F /  -14.3 °C 5.9 °F /  -14.5 °C 1030.4 in /  34889.3 hPa NE 3.2 mph /  5.1 km/h 9.7 mph /  15.6 km/h 98 % 0.0 in /  0 mm
12:52 6.2 °F /  -14.3 °C 5.8 °F /  -14.6 °C 1030.4 in /  34889.3 hPa NNE 4.8 mph /  7.7 km/h 11.3 mph /  18.2 km/h 97 % 0.3 in /  7.62 mm
12:57 6.3 °F /  -14.3 °C 6.0 °F /  -14.4 °C 1030.4 in /  34889.3 hPa NE 4.8 mph /  7.7 km/h 11.3 mph /  18.2 km/h 98 % 0.3 in /  7.62 mm
13:02 6.2 °F /  -14.3 °C 5.8 °F /  -14.6 °C 1030.0 in /  34875.8 hPa Calm   11.3 mph /  18.2 km/h 97 % 0.3 in /  7.62 mm
13:12 6.5 °F /  -14.2 °C 6.2 °F /  -14.3 °C 1030.0 in /  34875.8 hPa North 4.8 mph /  7.7 km/h 8.0 mph /  12.9 km/h 98 % 0.3 in /  7.62 mm
13:17 6.4 °F /  -14.2 °C 6.0 °F /  -14.4 °C 1030.0 in /  34875.8 hPa Calm   6.4 mph /  10.3 km/h 97 % 0.3 in /  7.62 mm
13:22 6.6 °F /  -14.1 °C 6.2 °F /  -14.3 °C 1030.0 in /  34875.8 hPa Calm   6.4 mph /  10.3 km/h 97 % 0.3 in /  7.62 mm
13:27 6.7 °F /  -14.1 °C 6.3 °F /  -14.3 °C 1030.0 in /  34875.8 hPa Calm   6.4 mph /  10.3 km/h 97 % 0.3 in /  7.62 mm
13:32 6.8 °F /  -14 °C 6.4 °F /  -14.2 °C 1030.0 in /  34875.8 hPa NE 6.4 mph /  10.3 km/h 6.4 mph /  10.3 km/h 97 % 0.3 in /  7.62 mm
13:37 6.7 °F /  -14.1 °C 6.3 °F /  -14.3 °C 1030.0 in /  34875.8 hPa East 1.6 mph /  2.6 km/h 6.4 mph /  10.3 km/h 97 % 0.0 in /  0 mm
13:42 6.9 °F /  -13.9 °C 6.5 °F /  -14.2 °C 1029.7 in /  34865.6 hPa Calm   6.4 mph /  10.3 km/h 97 % 0.0 in /  0 mm
13:47 6.9 °F /  -13.9 °C 6.5 °F /  -14.2 °C 1029.7 in /  34865.6 hPa East 1.6 mph /  2.6 km/h 6.4 mph /  10.3 km/h 97 % 0.0 in /  0 mm
13:52 6.9 °F /  -13.9 °C 6.5 °F /  -14.2 °C 1029.7 in /  34865.6 hPa ESE 1.6 mph /  2.6 km/h 3.2 mph /  5.1 km/h 97 % 0.0 in /  0 mm
13:57 7.1 °F /  -13.8 °C 6.7 °F /  -14.1 °C 1029.7 in /  34865.6 hPa Calm   3.2 mph /  5.1 km/h 97 % 0.0 in /  0 mm
14:02 7.4 °F /  -13.7 °C 7.0 °F /  -13.9 °C 1029.3 in /  34852.1 hPa Calm   3.2 mph /  5.1 km/h 97 % 0.0 in /  0 mm
14:12 7.5 °F /  -13.6 °C 6.9 °F /  -13.9 °C 1029.3 in /  34852.1 hPa Calm   3.2 mph /  5.1 km/h 96 % 0.0 in /  0 mm
14:17 7.6 °F /  -13.6 °C 7.0 °F /  -13.9 °C 1029.3 in /  34852.1 hPa Calm   3.2 mph /  5.1 km/h 96 % 0.0 in /  0 mm
14:27 8.0 °F /  -13.3 °C 7.4 °F /  -13.7 °C 1029.3 in /  34852.1 hPa Calm   3.2 mph /  5.1 km/h 96 % 0.0 in /  0 mm
14:32 8.3 °F /  -13.2 °C 7.7 °F /  -13.5 °C 1029.3 in /  34852.1 hPa Calm   3.2 mph /  5.1 km/h 96 % 0.0 in /  0 mm
14:37 8.4 °F /  -13.1 °C 7.6 °F /  -13.6 °C 1029.3 in /  34852.1 hPa Calm   1.6 mph /  2.6 km/h 95 % 0.0 in /  0 mm
14:42 8.5 °F /  -13.1 °C 7.6 °F /  -13.6 °C 1029.3 in /  34852.1 hPa North 1.6 mph /  2.6 km/h 1.6 mph /  2.6 km/h 94 % 0.0 in /  0 mm
14:47 8.5 °F /  -13.1 °C 7.3 °F /  -13.7 °C 1029.3 in /  34852.1 hPa NNW 1.6 mph /  2.6 km/h 4.8 mph /  7.7 km/h 92 % 0.0 in /  0 mm
14:52 8.6 °F /  -13 °C 7.2 °F /  -13.8 °C 1029.0 in /  34841.9 hPa Calm   4.8 mph /  7.7 km/h 91 % 0.0 in /  0 mm
14:57 8.6 °F /  -13 °C 7.2 °F /  -13.8 °C 1029.0 in /  34841.9 hPa North 1.6 mph /  2.6 km/h 4.8 mph /  7.7 km/h 91 % 0.0 in /  0 mm
15:02 8.8 °F /  -12.9 °C 7.2 °F /  -13.8 °C 1029.0 in /  34841.9 hPa Calm   3.2 mph /  5.1 km/h 90 % 0.0 in /  0 mm
15:07 9.1 °F /  -12.7 °C 7.4 °F /  -13.7 °C 1029.0 in /  34841.9 hPa Calm   3.2 mph /  5.1 km/h 89 % 0.0 in /  0 mm
15:12 9.2 °F /  -12.7 °C 7.1 °F /  -13.8 °C 1029.0 in /  34841.9 hPa NNE 1.6 mph /  2.6 km/h 4.8 mph /  7.7 km/h 87 % 0.0 in /  0 mm
15:17 9.1 °F /  -12.7 °C 7.1 °F /  -13.8 °C 1029.0 in /  34841.9 hPa NNE 1.6 mph /  2.6 km/h 4.8 mph /  7.7 km/h 87 % 0.0 in /  0 mm
15:22 9.1 °F /  -12.7 °C 7.1 °F /  -13.8 °C 1029.0 in /  34841.9 hPa Calm   6.4 mph /  10.3 km/h 87 % 0.0 in /  0 mm
15:27 9.1 °F /  -12.7 °C 7.1 °F /  -13.8 °C 1029.0 in /  34841.9 hPa NW 1.6 mph /  2.6 km/h 6.4 mph /  10.3 km/h 87 % 0.0 in /  0 mm
15:32 9.2 °F /  -12.7 °C 7.0 °F /  -13.9 °C 1029.0 in /  34841.9 hPa NNE 1.6 mph /  2.6 km/h 6.4 mph /  10.3 km/h 86 % 0.0 in /  0 mm
15:37 9.2 °F /  -12.7 °C 7.0 °F /  -13.9 °C 1029.0 in /  34841.9 hPa NE 1.6 mph /  2.6 km/h 4.8 mph /  7.7 km/h 86 % 0.0 in /  0 mm
15:42 9.3 °F /  -12.6 °C 7.1 °F /  -13.8 °C 1028.7 in /  34831.8 hPa Calm   4.8 mph /  7.7 km/h 86 % 0.0 in /  0 mm
15:52 9.3 °F /  -12.6 °C 6.9 °F /  -13.9 °C 1028.7 in /  34831.8 hPa NNW 1.6 mph /  2.6 km/h 4.8 mph /  7.7 km/h 85 % 0.0 in /  0 mm
15:57 9.3 °F /  -12.6 °C 6.7 °F /  -14.1 °C 1028.7 in /  34831.8 hPa Calm   4.8 mph /  7.7 km/h 84 % 0.0 in /  0 mm
16:02 9.4 °F /  -12.6 °C 6.8 °F /  -14 °C 1028.7 in /  34831.8 hPa NNW 1.6 mph /  2.6 km/h 6.4 mph /  10.3 km/h 84 % 0.0 in /  0 mm
16:12 9.4 °F /  -12.6 °C 6.7 °F /  -14.1 °C 1028.7 in /  34831.8 hPa Calm   6.4 mph /  10.3 km/h 83 % 0.0 in /  0 mm
16:17 9.5 °F /  -12.5 °C 6.8 °F /  -14 °C 1028.7 in /  34831.8 hPa NNE 1.6 mph /  2.6 km/h 4.8 mph /  7.7 km/h 83 % 0.0 in /  0 mm
16:22 9.6 °F /  -12.4 °C 6.9 °F /  -13.9 °C 1028.7 in /  34831.8 hPa NE 3.2 mph /  5.1 km/h 4.8 mph /  7.7 km/h 83 % 0.0 in /  0 mm
16:32 9.5 °F /  -12.5 °C 6.4 °F /  -14.2 °C 1028.7 in /  34831.8 hPa North 3.2 mph /  5.1 km/h 6.4 mph /  10.3 km/h 81 % 0.0 in /  0 mm
16:37 9.5 °F /  -12.5 °C 6.8 °F /  -14 °C 1028.7 in /  34831.8 hPa North 1.6 mph /  2.6 km/h 6.4 mph /  10.3 km/h 83 % 0.0 in /  0 mm
16:42 9.5 °F /  -12.5 °C 6.8 °F /  -14 °C 1028.7 in /  34831.8 hPa North 4.8 mph /  7.7 km/h 6.4 mph /  10.3 km/h 83 % 0.0 in /  0 mm
16:47 9.5 °F /  -12.5 °C 6.8 °F /  -14 °C 1028.7 in /  34831.8 hPa NNW 3.2 mph /  5.1 km/h 4.8 mph /  7.7 km/h 83 % 0.0 in /  0 mm
16:52 9.6 °F /  -12.4 °C 6.9 °F /  -13.9 °C 1028.3 in /  34818.2 hPa NNW 4.8 mph /  7.7 km/h 4.8 mph /  7.7 km/h 83 % 0.0 in /  0 mm
16:57 9.7 °F /  -12.4 °C 7.0 °F /  -13.9 °C 1028.3 in /  34818.2 hPa NW 3.2 mph /  5.1 km/h 4.8 mph /  7.7 km/h 83 % 0.0 in /  0 mm
17:02 9.7 °F /  -12.4 °C 6.8 °F /  -14 °C 1028.3 in /  34818.2 hPa NNW 3.2 mph /  5.1 km/h 6.4 mph /  10.3 km/h 82 % 0.0 in /  0 mm
17:07 9.6 °F /  -12.4 °C 6.7 °F /  -14.1 °C 1028.3 in /  34818.2 hPa NNW 4.8 mph /  7.7 km/h 8.0 mph /  12.9 km/h 82 % 0.0 in /  0 mm
17:12 9.6 °F /  -12.4 °C 6.7 °F /  -14.1 °C 1028.3 in /  34818.2 hPa North 3.2 mph /  5.1 km/h 8.0 mph /  12.9 km/h 82 % 0.0 in /  0 mm
17:17 9.6 °F /  -12.4 °C 6.7 °F /  -14.1 °C 1028.3 in /  34818.2 hPa NNW 3.2 mph /  5.1 km/h 8.0 mph /  12.9 km/h 82 % 0.0 in /  0 mm
17:22 9.6 °F /  -12.4 °C 6.9 °F /  -13.9 °C 1028.3 in /  34818.2 hPa NNW 1.6 mph /  2.6 km/h 6.4 mph /  10.3 km/h 83 % 0.0 in /  0 mm
17:32 9.4 °F /  -12.6 °C 6.7 °F /  -14.1 °C 1028.3 in /  34818.2 hPa NNE 3.2 mph /  5.1 km/h 6.4 mph /  10.3 km/h 83 % 0.0 in /  0 mm
17:37 9.3 °F /  -12.6 °C 6.6 °F /  -14.1 °C 1028.3 in /  34818.2 hPa North 1.6 mph /  2.6 km/h 6.4 mph /  10.3 km/h 83 % 0.0 in /  0 mm
17:42 9.2 °F /  -12.7 °C 6.5 °F /  -14.2 °C 1028.3 in /  34818.2 hPa NNW 4.8 mph /  7.7 km/h 8.0 mph /  12.9 km/h 83 % 0.0 in /  0 mm
17:47 9.2 °F /  -12.7 °C 6.5 °F /  -14.2 °C 1028.3 in /  34818.2 hPa NNW 3.2 mph /  5.1 km/h 8.0 mph /  12.9 km/h 83 % 0.0 in /  0 mm
17:52 9.1 °F /  -12.7 °C 6.4 °F /  -14.2 °C 1028.3 in /  34818.2 hPa North 3.2 mph /  5.1 km/h 8.0 mph /  12.9 km/h 83 % 0.0 in /  0 mm
17:57 8.9 °F /  -12.8 °C 6.2 °F /  -14.3 °C 1028.3 in /  34818.2 hPa North 3.2 mph /  5.1 km/h 8.0 mph /  12.9 km/h 83 % 0.0 in /  0 mm
18:02 8.8 °F /  -12.9 °C 6.2 °F /  -14.3 °C 1028.3 in /  34818.2 hPa NNW 3.2 mph /  5.1 km/h 6.4 mph /  10.3 km/h 84 % 0.0 in /  0 mm
18:12 8.5 °F /  -13.1 °C 6.1 °F /  -14.4 °C 1028.3 in /  34818.2 hPa Calm   6.4 mph /  10.3 km/h 85 % 0.0 in /  0 mm
18:17 8.3 °F /  -13.2 °C 6.1 °F /  -14.4 °C 1028.3 in /  34818.2 hPa NNW 4.8 mph /  7.7 km/h 6.4 mph /  10.3 km/h 86 % 0.0 in /  0 mm
18:27 8.1 °F /  -13.3 °C 6.1 °F /  -14.4 °C 1028.3 in /  34818.2 hPa NNW 3.2 mph /  5.1 km/h 4.8 mph /  7.7 km/h 87 % 0.0 in /  0 mm
18:32 8.0 °F /  -13.3 °C 6.0 °F /  -14.4 °C 1028.3 in /  34818.2 hPa NNW 3.2 mph /  5.1 km/h 4.8 mph /  7.7 km/h 87 % 0.0 in /  0 mm
18:42 7.8 °F /  -13.4 °C 5.9 °F /  -14.5 °C 1028.3 in /  34818.2 hPa NNW 1.6 mph /  2.6 km/h 4.8 mph /  7.7 km/h 88 % 0.0 in /  0 mm
18:52 7.6 °F /  -13.6 °C 5.9 °F /  -14.5 °C 1028.3 in /  34818.2 hPa NNW 3.2 mph /  5.1 km/h 6.4 mph /  10.3 km/h 89 % 0.0 in /  0 mm
18:57 7.5 °F /  -13.6 °C 5.8 °F /  -14.6 °C 1028.7 in /  34831.8 hPa NNW 4.8 mph /  7.7 km/h 6.4 mph /  10.3 km/h 89 % 0.0 in /  0 mm
19:02 7.4 °F /  -13.7 °C 5.9 °F /  -14.5 °C 1028.7 in /  34831.8 hPa NW 4.8 mph /  7.7 km/h 6.4 mph /  10.3 km/h 90 % 0.0 in /  0 mm
19:12 7.2 °F /  -13.8 °C 5.7 °F /  -14.6 °C 1028.7 in /  34831.8 hPa NNW 4.8 mph /  7.7 km/h 8.0 mph /  12.9 km/h 90 % 0.0 in /  0 mm
19:17 7.1 °F /  -13.8 °C 5.6 °F /  -14.7 °C 1028.7 in /  34831.8 hPa NW 1.6 mph /  2.6 km/h 8.0 mph /  12.9 km/h 90 % 0.0 in /  0 mm
19:22 7.1 °F /  -13.8 °C 5.6 °F /  -14.7 °C 1028.7 in /  34831.8 hPa NNW 4.8 mph /  7.7 km/h 8.0 mph /  12.9 km/h 90 % 0.0 in /  0 mm
19:27 7.0 °F /  -13.9 °C 5.5 °F /  -14.7 °C 1028.7 in /  34831.8 hPa NNW 4.8 mph /  7.7 km/h 6.4 mph /  10.3 km/h 90 % 0.0 in /  0 mm
19:32 6.9 °F /  -13.9 °C 5.4 °F /  -14.8 °C 1028.7 in /  34831.8 hPa NNW 1.6 mph /  2.6 km/h 6.4 mph /  10.3 km/h 90 % 0.0 in /  0 mm
19:37 6.9 °F /  -13.9 °C 5.5 °F /  -14.7 °C 1028.7 in /  34831.8 hPa NNW 3.2 mph /  5.1 km/h 6.4 mph /  10.3 km/h 91 % 0.0 in /  0 mm
19:47 6.6 °F /  -14.1 °C 5.2 °F /  -14.9 °C 1028.7 in /  34831.8 hPa North 1.6 mph /  2.6 km/h 4.8 mph /  7.7 km/h 91 % 0.0 in /  0 mm
19:52 6.5 °F /  -14.2 °C 5.1 °F /  -14.9 °C 1028.7 in /  34831.8 hPa North 1.6 mph /  2.6 km/h 4.8 mph /  7.7 km/h 91 % 0.0 in /  0 mm
19:57 6.5 °F /  -14.2 °C 5.3 °F /  -14.8 °C 1028.7 in /  34831.8 hPa NNW 3.2 mph /  5.1 km/h 3.2 mph /  5.1 km/h 92 % 0.0 in /  0 mm
20:02 6.6 °F /  -14.1 °C 5.4 °F /  -14.8 °C 1028.7 in /  34831.8 hPa North 1.6 mph /  2.6 km/h 4.8 mph /  7.7 km/h 92 % 0.0 in /  0 mm
20:12 6.4 °F /  -14.2 °C 5.0 °F /  -15 °C 1028.7 in /  34831.8 hPa NNW 1.6 mph /  2.6 km/h 4.8 mph /  7.7 km/h 91 % 0.0 in /  0 mm
20:17 6.4 °F /  -14.2 °C 5.0 °F /  -15 °C 1028.7 in /  34831.8 hPa NNW 1.6 mph /  2.6 km/h 4.8 mph /  7.7 km/h 91 % 0.0 in /  0 mm
20:22 6.3 °F /  -14.3 °C 4.9 °F /  -15.1 °C 1028.7 in /  34831.8 hPa North 1.6 mph /  2.6 km/h 4.8 mph /  7.7 km/h 91 % 0.0 in /  0 mm
20:27 6.1 °F /  -14.4 °C 4.9 °F /  -15.1 °C 1028.3 in /  34818.2 hPa North 1.6 mph /  2.6 km/h 4.8 mph /  7.7 km/h 92 % 0.0 in /  0 mm
20:32 6.1 °F /  -14.4 °C 4.9 °F /  -15.1 °C 1028.7 in /  34831.8 hPa NNE 1.6 mph /  2.6 km/h 4.8 mph /  7.7 km/h 92 % 0.0 in /  0 mm
20:37 6.1 °F /  -14.4 °C 4.9 °F /  -15.1 °C 1028.3 in /  34818.2 hPa North 1.6 mph /  2.6 km/h 4.8 mph /  7.7 km/h 92 % 0.0 in /  0 mm
20:42 6.1 °F /  -14.4 °C 4.9 °F /  -15.1 °C 1028.3 in /  34818.2 hPa NNE 3.2 mph /  5.1 km/h 4.8 mph /  7.7 km/h 92 % 0.0 in /  0 mm
20:47 6.1 °F /  -14.4 °C 4.7 °F /  -15.2 °C 1028.3 in /  34818.2 hPa NNE 1.6 mph /  2.6 km/h 4.8 mph /  7.7 km/h 91 % 0.0 in /  0 mm
20:52 5.9 °F /  -14.5 °C 4.5 °F /  -15.3 °C 1028.7 in /  34831.8 hPa NNE 4.8 mph /  7.7 km/h 4.8 mph /  7.7 km/h 91 % 0.0 in /  0 mm
20:57 5.8 °F /  -14.6 °C 4.6 °F /  -15.2 °C 1028.7 in /  34831.8 hPa Calm   8.0 mph /  12.9 km/h 92 % 0.0 in /  0 mm
21:02 5.8 °F /  -14.6 °C 4.6 °F /  -15.2 °C 1028.7 in /  34831.8 hPa North 4.8 mph /  7.7 km/h 8.0 mph /  12.9 km/h 92 % 0.0 in /  0 mm
21:07 5.9 °F /  -14.5 °C 4.7 °F /  -15.2 °C 1028.7 in /  34831.8 hPa NNW 3.2 mph /  5.1 km/h 8.0 mph /  12.9 km/h 92 % 0.0 in /  0 mm
21:12 5.9 °F /  -14.5 °C 4.7 °F /  -15.2 °C 1028.7 in /  34831.8 hPa North 3.2 mph /  5.1 km/h 6.4 mph /  10.3 km/h 92 % 0.0 in /  0 mm
21:22 5.8 °F /  -14.6 °C 4.4 °F /  -15.3 °C 1028.7 in /  34831.8 hPa North 3.2 mph /  5.1 km/h 6.4 mph /  10.3 km/h 91 % 0.0 in /  0 mm
21:27 5.7 °F /  -14.6 °C 4.3 °F /  -15.4 °C 1028.7 in /  34831.8 hPa North 6.4 mph /  10.3 km/h 6.4 mph /  10.3 km/h 91 % 0.0 in /  0 mm
21:32 5.6 °F /  -14.7 °C 4.4 °F /  -15.3 °C 1028.7 in /  34831.8 hPa NNW 3.2 mph /  5.1 km/h 6.4 mph /  10.3 km/h 92 % 0.0 in /  0 mm
21:37 5.7 °F /  -14.6 °C 4.7 °F /  -15.2 °C 1028.7 in /  34831.8 hPa North 6.4 mph /  10.3 km/h 9.7 mph /  15.6 km/h 93 % 0.0 in /  0 mm
21:42 5.7 °F /  -14.6 °C 4.7 °F /  -15.2 °C 1028.7 in /  34831.8 hPa NE 3.2 mph /  5.1 km/h 9.7 mph /  15.6 km/h 93 % 0.0 in /  0 mm
21:47 5.7 °F /  -14.6 °C 4.7 °F /  -15.2 °C 1028.7 in /  34831.8 hPa North 6.4 mph /  10.3 km/h 9.7 mph /  15.6 km/h 93 % 0.0 in /  0 mm
21:52 5.7 °F /  -14.6 °C 4.5 °F /  -15.3 °C 1028.7 in /  34831.8 hPa NNE 3.2 mph /  5.1 km/h 8.0 mph /  12.9 km/h 92 % 0.0 in /  0 mm
21:57 5.7 °F /  -14.6 °C 4.5 °F /  -15.3 °C 1028.7 in /  34831.8 hPa NE 3.2 mph /  5.1 km/h 8.0 mph /  12.9 km/h 92 % 0.0 in /  0 mm
22:02 5.6 °F /  -14.7 °C 4.4 °F /  -15.3 °C 1028.7 in /  34831.8 hPa North 4.8 mph /  7.7 km/h 9.7 mph /  15.6 km/h 92 % 0.0 in /  0 mm
22:07 5.4 °F /  -14.8 °C 4.2 °F /  -15.4 °C 1028.7 in /  34831.8 hPa North 1.6 mph /  2.6 km/h 9.7 mph /  15.6 km/h 92 % 0.0 in /  0 mm
22:17 5.3 °F /  -14.8 °C 4.3 °F /  -15.4 °C 1028.3 in /  34818.2 hPa North 6.4 mph /  10.3 km/h 9.7 mph /  15.6 km/h 93 % 0.0 in /  0 mm
22:22 5.4 °F /  -14.8 °C 4.2 °F /  -15.4 °C 1028.3 in /  34818.2 hPa NE 4.8 mph /  7.7 km/h 9.7 mph /  15.6 km/h 92 % 0.0 in /  0 mm
22:27 5.4 °F /  -14.8 °C 4.2 °F /  -15.4 °C 1028.3 in /  34818.2 hPa North 1.6 mph /  2.6 km/h 9.7 mph /  15.6 km/h 92 % 0.0 in /  0 mm
22:32 5.4 °F /  -14.8 °C 4.2 °F /  -15.4 °C 1028.3 in /  34818.2 hPa ENE 6.4 mph /  10.3 km/h 9.7 mph /  15.6 km/h 92 % 0.0 in /  0 mm
22:37 5.4 °F /  -14.8 °C 4.2 °F /  -15.4 °C 1028.3 in /  34818.2 hPa Calm   8.0 mph /  12.9 km/h 92 % 0.0 in /  0 mm
22:42 5.3 °F /  -14.8 °C 4.0 °F /  -15.6 °C 1028.3 in /  34818.2 hPa Calm   8.0 mph /  12.9 km/h 91 % 0.0 in /  0 mm
22:47 5.2 °F /  -14.9 °C 4.0 °F /  -15.6 °C 1028.3 in /  34818.2 hPa Calm   6.4 mph /  10.3 km/h 92 % 0.0 in /  0 mm
22:57 5.3 °F /  -14.8 °C 4.1 °F /  -15.5 °C 1028.3 in /  34818.2 hPa NE 1.6 mph /  2.6 km/h 4.8 mph /  7.7 km/h 92 % 0.0 in /  0 mm
23:02 5.4 °F /  -14.8 °C 4.2 °F /  -15.4 °C 1028.3 in /  34818.2 hPa NNE 4.8 mph /  7.7 km/h 4.8 mph /  7.7 km/h 92 % 0.0 in /  0 mm
23:07 5.4 °F /  -14.8 °C 4.0 °F /  -15.6 °C 1028.3 in /  34818.2 hPa North 4.8 mph /  7.7 km/h 11.3 mph /  18.2 km/h 91 % 0.0 in /  0 mm
23:12 5.4 °F /  -14.8 °C 4.0 °F /  -15.6 °C 1028.3 in /  34818.2 hPa NNE 4.8 mph /  7.7 km/h 11.3 mph /  18.2 km/h 91 % 0.0 in /  0 mm
23:17 5.4 °F /  -14.8 °C 3.9 °F /  -15.6 °C 1028.3 in /  34818.2 hPa Calm   11.3 mph /  18.2 km/h 90 % 0.0 in /  0 mm
23:22 5.2 °F /  -14.9 °C 3.9 °F /  -15.6 °C 1028.3 in /  34818.2 hPa NNE 1.6 mph /  2.6 km/h 11.3 mph /  18.2 km/h 91 % 0.0 in /  0 mm
23:32 5.1 °F /  -14.9 °C 3.8 °F /  -15.7 °C 1028.3 in /  34818.2 hPa North 1.6 mph /  2.6 km/h 6.4 mph /  10.3 km/h 91 % 0.0 in /  0 mm
23:37 5.1 °F /  -14.9 °C 3.8 °F /  -15.7 °C 1028.0 in /  34808.1 hPa Calm   3.2 mph /  5.1 km/h 91 % 0.0 in /  0 mm
23:42 5.1 °F /  -14.9 °C 3.8 °F /  -15.7 °C 1028.0 in /  34808.1 hPa Calm   3.2 mph /  5.1 km/h 91 % 0.0 in /  0 mm
23:52 4.9 °F /  -15.1 °C 3.6 °F /  -15.8 °C 1028.0 in /  34808.1 hPa Calm   3.2 mph /  5.1 km/h 91 % 0.0 in /  0 mm
23:57 4.8 °F /  -15.1 °C 3.5 °F /  -15.8 °C 1028.0 in /  34808.1 hPa Calm   3.2 mph /  5.1 km/h 91 % 0.0 in /  0 mm
Meteo18
Compliments of Weather Underground - 4 mb

Script developed by  Jim McMurry - jmcmurry@mwt.net Adapted for the template by  Wim van der Kuil - Leuven-Template.eu

You find our weather info also at:

European Weather Network

Weather Underground

Equipment we use:

Weather-station
Davis Vue

Weather-program
Meteobridge

Weather-server
Raspberry PI 2 B+

Provider
1 and 1

Davis Vue

Meteobridge

Raspberry PI 2 B+

1 and 1